Time;durP1;ratioP1;P1;durP2;ratioP2;P2;SDS_P1;SDS_P2;PMS_P1;PMS_P2;Temp;Humidity;BMP_temperature;BMP_pressure;BME280_temperature;BME280_humidity;BME280_pressure;Samples;Min_cycle;Max_cycle;Signal;HPM_P1;HPM_P2
2023/10/27 00:01:43;;;;;;;3.10;2.80;;;16.90;99.90;;;;;;5005766;28;20262;-88
2023/10/27 00:04:09;;;;;;;3.47;3.00;;;16.90;99.90;;;;;;5012014;28;20306;-88
2023/10/27 00:06:35;;;;;;;3.10;2.80;;;16.90;99.90;;;;;;5007794;28;20492;-88
2023/10/27 00:09:01;;;;;;;3.40;3.10;;;16.90;99.90;;;;;;4998675;28;20575;-88
2023/10/27 00:11:27;;;;;;;3.03;2.73;;;16.90;99.90;;;;;;5017186;28;20200;-88
2023/10/27 00:13:54;;;;;;;3.07;2.70;;;16.90;99.90;;;;;;5000711;28;20451;-88
2023/10/27 00:16:21;;;;;;;3.00;2.60;;;16.90;99.90;;;;;;4999589;28;20228;-88
2023/10/27 00:18:46;;;;;;;2.70;2.50;;;16.90;99.90;;;;;;5003772;28;20451;-88
2023/10/27 00:21:12;;;;;;;3.77;2.90;;;16.90;99.90;;;;;;5000433;28;20700;-88
2023/10/27 00:23:38;;;;;;;3.30;2.67;;;16.90;99.90;;;;;;5005185;28;20213;-88
2023/10/27 00:26:05;;;;;;;2.83;2.60;;;16.90;99.90;;;;;;5013416;28;20394;-88
2023/10/27 00:28:31;;;;;;;3.57;2.90;;;16.90;99.90;;;;;;5006076;28;20177;-88
2023/10/27 00:30:58;;;;;;;3.70;3.07;;;16.90;99.90;;;;;;5013543;28;20164;-88
2023/10/27 00:33:24;;;;;;;2.83;2.53;;;16.90;99.90;;;;;;5008142;28;20182;-88
2023/10/27 00:35:51;;;;;;;3.50;2.90;;;16.90;99.90;;;;;;4996821;28;20188;-89
2023/10/27 00:38:17;;;;;;;4.10;2.90;;;16.80;99.90;;;;;;5009629;28;20182;-89
2023/10/27 00:40:43;;;;;;;3.47;2.80;;;16.90;99.90;;;;;;4997606;28;20275;-89
2023/10/27 00:43:08;;;;;;;2.70;2.50;;;16.90;99.90;;;;;;4998932;28;20540;-89
2023/10/27 00:45:34;;;;;;;3.13;2.77;;;16.80;99.90;;;;;;5015159;28;20236;-88
2023/10/27 00:48:00;;;;;;;2.77;2.57;;;16.80;99.90;;;;;;5008599;28;20708;-88
2023/10/27 00:50:26;;;;;;;2.73;2.53;;;16.80;99.90;;;;;;4996378;28;20174;-89
2023/10/27 00:52:53;;;;;;;3.87;2.83;;;16.80;99.90;;;;;;5017526;28;20227;-89
2023/10/27 00:55:19;;;;;;;3.27;2.93;;;16.80;99.90;;;;;;4999448;28;20225;-89
2023/10/27 00:57:48;;;;;;;2.73;2.53;;;16.80;99.90;;;;;;4999587;28;20184;-89
2023/10/27 01:00:14;;;;;;;3.13;2.83;;;16.80;99.90;;;;;;5001588;28;20204;-89
2023/10/27 01:02:40;;;;;;;3.10;2.80;;;16.80;99.90;;;;;;4997996;28;20203;-88
2023/10/27 01:05:06;;;;;;;3.10;2.70;;;16.80;99.90;;;;;;5007208;28;20567;-88
2023/10/27 01:07:32;;;;;;;2.50;2.30;;;16.80;99.90;;;;;;4999781;28;20209;-88
2023/10/27 01:09:58;;;;;;;2.93;2.63;;;16.80;99.90;;;;;;5009726;28;20517;-88
2023/10/27 01:12:24;;;;;;;2.80;2.60;;;16.80;99.90;;;;;;4999604;28;20198;-89
2023/10/27 01:14:50;;;;;;;2.87;2.60;;;16.70;99.90;;;;;;5017137;28;20201;-89
2023/10/27 01:17:15;;;;;;;2.90;2.60;;;16.80;99.90;;;;;;5021293;28;20183;-88
2023/10/27 01:19:41;;;;;;;2.97;2.60;;;16.80;99.90;;;;;;5006957;28;20206;-88
2023/10/27 01:22:07;;;;;;;2.73;2.53;;;16.80;99.90;;;;;;5019311;28;20184;-89
2023/10/27 01:24:33;;;;;;;2.60;2.40;;;16.80;99.90;;;;;;5006171;28;20199;-89
2023/10/27 01:26:59;;;;;;;3.43;2.60;;;16.80;99.90;;;;;;5018111;28;20173;-89
2023/10/27 01:29:28;;;;;;;2.70;2.50;;;16.80;99.90;;;;;;5008275;28;20176;-89
2023/10/27 01:31:54;;;;;;;2.80;2.60;;;16.70;99.90;;;;;;5015524;28;20251;-89
2023/10/27 01:34:20;;;;;;;2.80;2.50;;;16.70;99.90;;;;;;5010112;28;20502;-88
2023/10/27 01:36:45;;;;;;;2.57;2.37;;;16.70;99.90;;;;;;5013858;28;20511;-88
2023/10/27 01:39:12;;;;;;;2.57;2.27;;;16.70;99.90;;;;;;5013350;28;20271;-88
2023/10/27 01:41:38;;;;;;;2.53;2.33;;;16.70;99.90;;;;;;5011923;28;20521;-88
2023/10/27 01:44:04;;;;;;;2.67;2.40;;;16.70;99.90;;;;;;5015971;28;20216;-88
2023/10/27 01:46:30;;;;;;;2.50;2.30;;;16.70;99.90;;;;;;5027514;28;20275;-88
2023/10/27 01:48:55;;;;;;;2.60;2.40;;;16.70;99.90;;;;;;5017325;28;20590;-88
2023/10/27 01:51:21;;;;;;;2.60;2.40;;;16.70;99.90;;;;;;5008008;28;20193;-88
2023/10/27 01:53:47;;;;;;;2.83;2.60;;;16.70;99.90;;;;;;5019960;28;20273;-88
2023/10/27 01:56:13;;;;;;;2.90;2.43;;;16.70;99.90;;;;;;5010647;28;20497;-89
2023/10/27 01:58:43;;;;;;;2.63;2.40;;;16.70;99.90;;;;;;5000271;28;20183;-88
2023/10/27 02:01:09;;;;;;;3.40;2.60;;;16.70;99.90;;;;;;5011760;28;20181;-88
2023/10/27 02:03:35;;;;;;;4.37;2.60;;;16.70;99.90;;;;;;4999618;28;20257;-86
2023/10/27 02:06:01;;;;;;;2.80;2.60;;;16.70;99.90;;;;;;5005255;28;20182;-86
2023/10/27 02:08:26;;;;;;;2.80;2.30;;;16.70;99.90;;;;;;5018498;28;20173;-86
2023/10/27 02:10:52;;;;;;;2.50;2.30;;;16.70;99.90;;;;;;5008127;28;20508;-86
2023/10/27 02:13:18;;;;;;;2.43;2.23;;;16.70;99.90;;;;;;5033490;28;20574;-86
2023/10/27 02:15:44;;;;;;;3.13;2.47;;;16.70;99.90;;;;;;5011527;28;20170;-87
2023/10/27 02:18:09;;;;;;;3.77;2.43;;;16.70;99.90;;;;;;5031782;28;20206;-87
2023/10/27 02:20:35;;;;;;;2.70;2.50;;;16.70;99.90;;;;;;5013237;28;20239;-87
2023/10/27 02:23:01;;;;;;;2.77;2.40;;;16.70;99.90;;;;;;5029271;28;20561;-87
2023/10/27 02:25:27;;;;;;;4.37;2.60;;;16.70;99.90;;;;;;5016436;28;20174;-88
2023/10/27 02:27:53;;;;;;;2.63;2.20;;;16.70;99.90;;;;;;5008658;28;20462;-88
2023/10/27 02:30:18;;;;;;;2.50;2.30;;;16.70;99.90;;;;;;5033325;28;20187;-88
2023/10/27 02:32:44;;;;;;;2.53;2.30;;;16.70;99.90;;;;;;5023012;28;20170;-88
2023/10/27 02:35:09;;;;;;;2.53;2.33;;;16.70;99.90;;;;;;5014823;28;20261;-88
2023/10/27 02:37:35;;;;;;;2.47;2.27;;;16.70;99.90;;;;;;5005507;28;20174;-88
2023/10/27 02:40:01;;;;;;;2.50;2.30;;;16.70;99.90;;;;;;5032915;28;20187;-88
2023/10/27 02:42:27;;;;;;;2.33;2.13;;;16.70;99.90;;;;;;5002723;28;20243;-88
2023/10/27 02:44:53;;;;;;;2.53;2.27;;;16.70;99.90;;;;;;4997624;28;20618;-89
2023/10/27 02:47:19;;;;;;;2.43;2.17;;;16.70;99.90;;;;;;5011504;28;20392;-88
2023/10/27 02:49:44;;;;;;;2.40;2.20;;;16.70;99.90;;;;;;4998525;28;20170;-88
2023/10/27 02:52:10;;;;;;;2.20;2.00;;;16.70;99.90;;;;;;5007591;28;20459;-86
2023/10/27 02:54:36;;;;;;;2.30;2.10;;;16.70;99.90;;;;;;5001088;28;20462;-87
2023/10/27 02:57:01;;;;;;;2.30;2.10;;;16.60;99.90;;;;;;5005004;28;20197;-87
2023/10/27 02:59:27;;;;;;;2.20;2.00;;;16.70;99.90;;;;;;5001819;28;20177;-87
2023/10/27 03:01:54;;;;;;;2.30;2.10;;;16.60;99.90;;;;;;5016411;28;20203;-87
2023/10/27 03:04:20;;;;;;;2.17;1.80;;;16.70;99.90;;;;;;5025389;28;20465;-87
2023/10/27 03:06:46;;;;;;;2.33;2.13;;;16.60;99.90;;;;;;5014833;28;20187;-87
2023/10/27 03:09:11;;;;;;;2.27;2.07;;;16.60;99.90;;;;;;5024394;28;20170;-87
2023/10/27 03:11:37;;;;;;;2.40;2.20;;;16.60;99.90;;;;;;5015968;28;20167;-87
2023/10/27 03:14:03;;;;;;;2.33;2.13;;;16.70;99.90;;;;;;5017572;28;20198;-87
2023/10/27 03:16:28;;;;;;;2.33;2.07;;;16.60;99.90;;;;;;5034571;28;20179;-87
2023/10/27 03:18:55;;;;;;;2.40;2.20;;;16.60;99.90;;;;;;5006413;28;20179;-87
2023/10/27 03:21:21;;;;;;;2.20;2.00;;;16.60;99.90;;;;;;5035469;28;20550;-87
2023/10/27 03:23:48;;;;;;;2.50;2.30;;;16.60;99.90;;;;;;5005113;28;20348;-89
2023/10/27 03:26:13;;;;;;;2.33;2.13;;;16.60;99.90;;;;;;5017554;28;20180;-89
2023/10/27 03:28:41;;;;;;;2.23;2.03;;;16.60;99.90;;;;;;5031262;28;20195;-88
2023/10/27 03:31:09;;;;;;;2.60;2.30;;;16.60;99.90;;;;;;5017854;28;20270;-88
2023/10/27 03:33:35;;;;;;;2.20;2.00;;;16.60;99.90;;;;;;5013037;28;20641;-88
2023/10/27 03:36:01;;;;;;;2.10;2.00;;;16.60;99.90;;;;;;4999306;28;20284;-88
2023/10/27 03:38:27;;;;;;;2.10;1.90;;;16.60;99.90;;;;;;5002567;28;20271;-88
2023/10/27 03:40:54;;;;;;;3.03;2.20;;;16.60;99.90;;;;;;4999061;28;20210;-88
2023/10/27 03:43:20;;;;;;;2.47;2.17;;;16.60;99.90;;;;;;4999821;28;20180;-88
2023/10/27 03:45:45;;;;;;;2.00;1.77;;;16.60;99.90;;;;;;5002558;28;20180;-88
2023/10/27 03:48:11;;;;;;;2.33;2.10;;;16.60;99.90;;;;;;4997240;28;20181;-88
2023/10/27 03:50:37;;;;;;;1.97;1.87;;;16.60;99.90;;;;;;5003652;28;20281;-89
2023/10/27 03:53:04;;;;;;;2.63;2.00;;;16.60;99.90;;;;;;4994558;28;20172;-88
2023/10/27 03:55:30;;;;;;;3.00;1.97;;;16.60;99.90;;;;;;5004860;28;20231;-88
2023/10/27 03:58:11;;;;;;;2.13;2.00;;;16.60;99.90;;;;;;5012835;28;20564;-88
2023/10/27 04:00:37;;;;;;;2.10;1.90;;;16.60;99.90;;;;;;4994200;28;20289;-88
2023/10/27 04:03:03;;;;;;;1.90;1.80;;;16.60;99.90;;;;;;5009482;28;20282;-88
2023/10/27 04:05:28;;;;;;;2.07;1.80;;;16.60;99.90;;;;;;5001348;28;20201;-88
2023/10/27 04:07:54;;;;;;;2.47;2.00;;;16.60;99.90;;;;;;5012290;28;20171;-89
2023/10/27 04:10:21;;;;;;;2.07;1.90;;;16.60;99.90;;;;;;5001286;28;20476;-88
2023/10/27 04:12:47;;;;;;;2.10;1.90;;;16.60;99.90;;;;;;5013449;28;20542;-88
2023/10/27 04:15:13;;;;;;;3.50;2.10;;;16.60;99.90;;;;;;5026630;28;20242;-88
2023/10/27 04:17:38;;;;;;;1.80;1.70;;;16.60;99.90;;;;;;5013593;28;20184;-88
2023/10/27 04:20:05;;;;;;;2.83;2.00;;;16.60;99.90;;;;;;5012761;28;20249;-88
2023/10/27 04:22:31;;;;;;;2.10;1.90;;;16.60;99.90;;;;;;4995021;28;20183;-88
2023/10/27 04:24:56;;;;;;;2.20;2.00;;;16.60;99.90;;;;;;5016931;28;20282;-88
2023/10/27 04:27:22;;;;;;;2.27;1.80;;;16.60;99.90;;;;;;4998899;28;20178;-88
2023/10/27 04:29:48;;;;;;;2.20;1.87;;;16.60;99.90;;;;;;4998072;28;20248;-88
2023/10/27 04:32:15;;;;;;;2.10;1.90;;;16.60;99.90;;;;;;5001459;28;20178;-88
2023/10/27 04:34:42;;;;;;;2.20;2.00;;;16.60;99.90;;;;;;4998476;28;20198;-88
2023/10/27 04:37:08;;;;;;;2.33;2.03;;;16.60;99.90;;;;;;5006448;28;20183;-88
2023/10/27 04:39:33;;;;;;;2.97;1.97;;;16.60;99.90;;;;;;5017699;28;20177;-88
2023/10/27 04:41:59;;;;;;;2.10;1.90;;;16.50;99.90;;;;;;5008233;28;20187;-88
2023/10/27 04:44:25;;;;;;;2.03;1.83;;;16.60;99.90;;;;;;5018208;28;20239;-88
2023/10/27 04:46:51;;;;;;;1.80;1.70;;;16.60;99.90;;;;;;5005748;28;20174;-88
2023/10/27 04:49:18;;;;;;;2.20;1.93;;;16.60;99.90;;;;;;5017035;28;20175;-88
2023/10/27 04:51:43;;;;;;;2.67;1.93;;;16.60;99.90;;;;;;5004901;28;20562;-88
2023/10/27 04:54:10;;;;;;;2.30;2.10;;;16.60;99.90;;;;;;5015878;28;20299;-88
2023/10/27 04:56:36;;;;;;;2.70;1.90;;;16.60;99.90;;;;;;5005594;28;20496;-89
2023/10/27 04:59:02;;;;;;;2.23;2.03;;;16.60;99.90;;;;;;5032719;28;20378;-88
2023/10/27 05:01:27;;;;;;;2.10;1.77;;;16.60;99.90;;;;;;5006633;28;20181;-87
2023/10/27 05:03:54;;;;;;;1.97;1.77;;;16.60;99.90;;;;;;5010902;28;20209;-87
2023/10/27 05:06:20;;;;;;;2.97;1.70;;;16.60;99.90;;;;;;5007193;28;20163;-87
2023/10/27 05:08:45;;;;;;;2.10;1.90;;;16.60;99.90;;;;;;5009322;28;20168;-87
2023/10/27 05:11:12;;;;;;;2.23;1.77;;;16.60;99.90;;;;;;5028043;28;20452;-87
2023/10/27 05:13:37;;;;;;;2.77;1.77;;;16.60;99.90;;;;;;5008389;28;20176;-87
2023/10/27 05:16:04;;;;;;;3.60;2.00;;;16.60;99.90;;;;;;5028502;28;20195;-87
2023/10/27 05:18:30;;;;;;;3.73;2.10;;;16.60;99.90;;;;;;5003209;28;20218;-87
2023/10/27 05:20:56;;;;;;;2.70;2.00;;;16.60;99.90;;;;;;5012895;28;20224;-87
2023/10/27 05:23:21;;;;;;;2.80;2.00;;;16.60;99.90;;;;;;5003950;28;20642;-87
2023/10/27 05:25:47;;;;;;;5.20;1.90;;;16.60;99.90;;;;;;5012546;28;20186;-87
2023/10/27 05:28:13;;;;;;;1.83;1.70;;;16.60;99.90;;;;;;5003155;28;20264;-87
2023/10/27 05:30:43;;;;;;;3.00;2.00;;;16.60;99.90;;;;;;4991968;28;20208;-87
2023/10/27 05:33:09;;;;;;;2.50;1.90;;;16.60;99.90;;;;;;5006552;28;20169;-87
2023/10/27 05:35:35;;;;;;;3.63;2.13;;;16.60;99.90;;;;;;4994511;28;20671;-87
2023/10/27 05:38:00;;;;;;;2.80;2.10;;;16.60;99.90;;;;;;5004993;28;20535;-87
2023/10/27 05:40:31;;;;;;;4.97;1.97;;;16.60;99.90;;;;;;4992036;28;20564;-87
2023/10/27 05:42:57;;;;;;;2.60;2.10;;;16.60;99.90;;;;;;4999479;28;20245;-87
2023/10/27 05:45:23;;;;;;;4.17;2.13;;;16.60;99.90;;;;;;4990099;28;20215;-87
2023/10/27 05:47:49;;;;;;;2.47;1.90;;;16.60;99.90;;;;;;4998087;28;20176;-87
2023/10/27 05:50:14;;;;;;;2.43;1.87;;;16.60;99.90;;;;;;4992574;28;20331;-88
2023/10/27 05:52:40;;;;;;;4.80;1.90;;;16.60;99.90;;;;;;4994166;28;20521;-87
2023/10/27 05:55:06;;;;;;;3.60;2.00;;;16.60;99.90;;;;;;4998261;28;20551;-88
2023/10/27 05:57:32;;;;;;;3.67;2.40;;;16.60;99.90;;;;;;4992710;28;20281;-88
2023/10/27 05:59:58;;;;;;;5.03;2.00;;;16.60;99.90;;;;;;5009527;28;20353;-88
2023/10/27 06:02:24;;;;;;;3.43;2.00;;;16.60;99.90;;;;;;4994769;28;20417;-88
2023/10/27 06:04:50;;;;;;;5.67;2.00;;;16.60;99.90;;;;;;5002605;28;20276;-88
2023/10/27 06:07:17;;;;;;;2.87;1.80;;;16.60;99.90;;;;;;4992480;28;20205;-88
2023/10/27 06:09:43;;;;;;;3.27;2.10;;;16.60;99.90;;;;;;5015751;28;20384;-88
2023/10/27 06:12:09;;;;;;;2.57;1.97;;;16.60;99.90;;;;;;5010196;28;20473;-88
2023/10/27 06:14:35;;;;;;;4.27;2.23;;;16.60;99.90;;;;;;4997405;28;20206;-89
2023/10/27 06:17:02;;;;;;;3.87;2.20;;;16.60;99.90;;;;;;5010563;28;20457;-89
2023/10/27 06:19:30;;;;;;;2.73;1.97;;;16.60;99.90;;;;;;5007247;28;20199;-88
2023/10/27 06:22:02;;;;;;;6.30;2.43;;;16.60;99.90;;;;;;4991913;28;20425;-88
2023/10/27 06:24:28;;;;;;;2.87;2.00;;;16.60;99.90;;;;;;5020456;28;20200;-89
2023/10/27 06:26:54;;;;;;;4.97;2.30;;;16.60;99.90;;;;;;4991359;28;20286;-88
2023/10/27 06:29:21;;;;;;;4.27;2.00;;;16.60;99.90;;;;;;4994567;28;20183;-89
2023/10/27 06:31:47;;;;;;;4.67;2.23;;;16.60;99.90;;;;;;5007302;28;20523;-89
2023/10/27 06:34:13;;;;;;;2.43;2.07;;;16.60;99.90;;;;;;5001109;28;20219;-89
2023/10/27 06:36:38;;;;;;;5.77;2.20;;;16.60;99.90;;;;;;5004800;28;20247;-89
2023/10/27 06:39:04;;;;;;;4.03;2.40;;;16.60;99.90;;;;;;5004349;28;20347;-88
2023/10/27 06:41:30;;;;;;;3.30;2.07;;;16.60;99.90;;;;;;5000557;28;20437;-89
2023/10/27 06:43:55;;;;;;;3.30;2.30;;;16.60;99.90;;;;;;5007478;28;20498;-88
2023/10/27 06:46:21;;;;;;;5.00;2.30;;;16.60;99.90;;;;;;4998130;28;20174;-88
2023/10/27 06:48:47;;;;;;;2.97;2.23;;;16.60;99.90;;;;;;5006230;28;20643;-88
2023/10/27 06:51:15;;;;;;;4.97;2.77;;;16.60;99.90;;;;;;5001367;28;20535;-88
2023/10/27 06:53:40;;;;;;;6.27;2.53;;;16.60;99.90;;;;;;4990323;28;20235;-88
2023/10/27 06:56:06;;;;;;;3.77;2.60;;;16.60;99.90;;;;;;5000775;28;20194;-88
2023/10/27 06:58:32;;;;;;;5.00;2.40;;;16.60;99.90;;;;;;5005848;28;20283;-89
2023/10/27 07:01:07;;;;;;;7.13;2.80;;;16.60;99.90;;;;;;5019455;28;20569;-89
2023/10/27 07:03:35;;;;;;;5.13;2.60;;;16.60;99.90;;;;;;4990111;28;20233;-89
2023/10/27 07:06:01;;;;;;;4.17;2.90;;;16.60;99.90;;;;;;5018933;28;20167;-88
2023/10/27 07:08:27;;;;;;;4.33;2.77;;;16.60;99.90;;;;;;4988673;28;20226;-88
2023/10/27 07:10:57;;;;;;;3.93;2.50;;;16.60;99.90;;;;;;4999039;28;20218;-88
2023/10/27 07:13:24;;;;;;;4.93;3.07;;;16.70;99.90;;;;;;4988005;28;20502;-88
2023/10/27 07:15:50;;;;;;;4.97;2.83;;;16.60;99.90;;;;;;5013828;28;20193;-88
2023/10/27 07:18:16;;;;;;;4.30;2.90;;;16.70;99.90;;;;;;5023307;28;20440;-88
2023/10/27 07:20:42;;;;;;;6.00;3.30;;;16.70;99.90;;;;;;5003623;28;20175;-88
2023/10/27 07:23:08;;;;;;;7.33;3.37;;;16.70;99.90;;;;;;4995223;28;20206;-88
2023/10/27 07:25:34;;;;;;;9.80;3.33;;;16.60;99.90;;;;;;4993587;28;20265;-88
2023/10/27 07:27:59;;;;;;;4.57;3.03;;;16.70;99.90;;;;;;4996799;28;20181;-88
2023/10/27 07:30:25;;;;;;;5.07;3.33;;;16.70;99.90;;;;;;4990450;28;20171;-88
2023/10/27 07:32:51;;;;;;;5.03;3.17;;;16.70;99.90;;;;;;5008754;28;20264;-88
2023/10/27 07:35:17;;;;;;;4.73;3.10;;;16.70;99.90;;;;;;5006243;28;20238;-88
2023/10/27 07:37:42;;;;;;;4.10;3.10;;;16.70;99.90;;;;;;5000026;28;20172;-88
2023/10/27 07:40:09;;;;;;;6.63;3.27;;;16.70;99.90;;;;;;4985718;28;20459;-88
2023/10/27 07:42:34;;;;;;;5.20;3.20;;;16.70;99.90;;;;;;4998613;28;20171;-88
2023/10/27 07:45:00;;;;;;;4.90;3.00;;;16.70;99.90;;;;;;4988112;28;20204;-88
2023/10/27 07:47:25;;;;;;;6.50;3.60;;;16.70;99.90;;;;;;4993675;28;20178;-88
2023/10/27 07:49:52;;;;;;;5.57;2.80;;;16.70;99.90;;;;;;5006317;28;20419;-88
2023/10/27 07:52:18;;;;;;;5.03;3.20;;;16.70;99.90;;;;;;4994521;28;20171;-88
2023/10/27 07:54:44;;;;;;;4.90;3.30;;;16.70;99.90;;;;;;5023937;28;20242;-88
2023/10/27 07:57:09;;;;;;;5.10;3.20;;;16.70;99.90;;;;;;5000000;28;20563;-88
2023/10/27 07:59:35;;;;;;;4.43;3.10;;;16.70;99.90;;;;;;5005127;28;20267;-88
2023/10/27 08:02:04;;;;;;;5.30;3.50;;;16.70;99.90;;;;;;5001478;28;20397;-88
2023/10/27 08:04:32;;;;;;;6.23;3.20;;;16.70;99.90;;;;;;4992189;28;20662;-88
2023/10/27 08:06:58;;;;;;;7.10;3.40;;;16.70;99.90;;;;;;4991264;28;20623;-88
2023/10/27 08:09:24;;;;;;;6.27;2.97;;;16.70;99.90;;;;;;4998809;28;20263;-88
2023/10/27 08:11:49;;;;;;;5.07;3.20;;;16.70;99.90;;;;;;5007962;28;20284;-88
2023/10/27 08:14:15;;;;;;;5.00;3.00;;;16.70;99.90;;;;;;5001069;28;20173;-88
2023/10/27 08:16:41;;;;;;;4.10;2.87;;;16.70;99.90;;;;;;5012258;28;20487;-88
2023/10/27 08:19:06;;;;;;;4.37;2.90;;;16.70;99.90;;;;;;5004076;28;20297;-88
2023/10/27 08:21:32;;;;;;;4.20;2.80;;;16.70;99.90;;;;;;4992229;28;20262;-88
2023/10/27 08:23:58;;;;;;;4.20;3.07;;;16.70;99.90;;;;;;5004942;28;20303;-88
2023/10/27 08:26:23;;;;;;;4.67;2.63;;;16.70;99.90;;;;;;5011553;28;20212;-88
2023/10/27 08:28:49;;;;;;;4.00;2.67;;;16.70;99.90;;;;;;5006426;28;20522;-88
2023/10/27 08:31:16;;;;;;;3.23;2.50;;;16.70;99.90;;;;;;4991655;28;20430;-88
2023/10/27 08:33:42;;;;;;;4.07;2.40;;;16.70;99.90;;;;;;5001814;28;20250;-88
2023/10/27 08:36:08;;;;;;;3.70;2.87;;;16.80;99.90;;;;;;4991242;28;20199;-88
2023/10/27 08:38:33;;;;;;;3.73;2.50;;;16.80;99.90;;;;;;4992266;28;20177;-88
2023/10/27 08:40:59;;;;;;;3.83;2.50;;;16.80;99.90;;;;;;4989310;28;20269;-88
2023/10/27 08:43:25;;;;;;;4.63;2.67;;;16.80;99.90;;;;;;4995060;28;20563;-88
2023/10/27 08:45:51;;;;;;;4.77;2.77;;;16.70;99.90;;;;;;5021526;28;20173;-88
2023/10/27 08:48:18;;;;;;;3.73;2.20;;;16.80;99.90;;;;;;5006040;28;20176;-88
2023/10/27 08:50:44;;;;;;;4.30;2.47;;;16.80;99.90;;;;;;5001259;28;20179;-88
2023/10/27 08:53:12;;;;;;;3.70;2.63;;;16.80;99.90;;;;;;5009702;28;20253;-87
2023/10/27 08:55:38;;;;;;;3.90;2.60;;;16.70;99.90;;;;;;4999653;28;20382;-87
2023/10/27 08:58:04;;;;;;;2.77;2.30;;;16.70;99.90;;;;;;5024984;28;20239;-87
2023/10/27 09:00:30;;;;;;;2.83;2.30;;;16.80;99.90;;;;;;5016527;28;20209;-88
2023/10/27 09:02:56;;;;;;;4.07;2.60;;;16.80;99.90;;;;;;5011896;28;20185;-88
2023/10/27 09:05:24;;;;;;;3.83;2.03;;;16.80;99.90;;;;;;4999519;28;20207;-87
2023/10/27 09:07:50;;;;;;;4.97;2.40;;;16.80;99.90;;;;;;5029589;28;20430;-88
2023/10/27 09:10:19;;;;;;;3.70;2.30;;;16.80;99.90;;;;;;5000684;28;20374;-88
2023/10/27 09:12:44;;;;;;;4.63;2.40;;;16.80;99.90;;;;;;5032175;28;20272;-88
2023/10/27 09:15:13;;;;;;;3.73;2.13;;;16.80;99.90;;;;;;5027569;28;20605;-88
2023/10/27 09:17:58;;;;;;;3.60;2.20;;;16.80;99.90;;;;;;5009527;28;20388;-88
2023/10/27 09:20:25;;;;;;;3.87;2.47;;;16.80;99.90;;;;;;5003609;28;20176;-88
2023/10/27 09:22:59;;;;;;;2.97;2.00;;;16.80;99.90;;;;;;4989880;28;20485;-87
2023/10/27 09:25:30;;;;;;;3.33;2.13;;;16.80;99.90;;;;;;5020127;28;20485;-88
2023/10/27 09:27:56;;;;;;;2.97;1.80;;;16.80;99.90;;;;;;4992409;28;20263;-88
2023/10/27 09:30:49;;;;;;;3.63;2.20;;;16.90;99.90;;;;;;4995808;28;20170;-87
2023/10/27 09:33:21;;;;;;;4.03;2.10;;;16.80;99.90;;;;;;5006536;28;20209;-88
2023/10/27 09:35:53;;;;;;;4.10;2.20;;;16.80;99.90;;;;;;5014906;28;20298;-87
2023/10/27 09:38:22;;;;;;;2.67;1.70;;;16.90;99.90;;;;;;5010902;28;20539;-88
2023/10/27 09:40:48;;;;;;;2.53;1.90;;;16.90;99.90;;;;;;5006085;28;20239;-87
2023/10/27 09:43:19;;;;;;;3.83;2.10;;;16.80;99.90;;;;;;5011035;28;20173;-87
2023/10/27 09:46:00;;;;;;;3.23;2.10;;;16.80;99.90;;;;;;4995730;28;20272;-86
2023/10/27 09:48:29;;;;;;;3.23;1.93;;;16.90;99.90;;;;;;5008297;28;20423;-86
2023/10/27 09:51:02;;;;;;;3.87;1.90;;;16.90;99.90;;;;;;5001573;28;20313;-86
2023/10/27 09:53:31;;;;;;;3.00;1.93;;;16.90;99.90;;;;;;5008007;28;20246;-86
2023/10/27 09:55:58;;;;;;;2.50;1.67;;;16.90;99.90;;;;;;5005261;28;20184;-87
2023/10/27 09:58:30;;;;;;;1.93;1.57;;;16.90;99.90;;;;;;4994952;28;20527;-86
2023/10/27 10:00:57;;;;;;;2.20;1.60;;;17.00;99.90;;;;;;4996185;28;20503;-86
2023/10/27 10:03:27;;;;;;;3.20;2.07;;;17.00;99.90;;;;;;4996755;28;20210;-86
2023/10/27 10:06:07;;;;;;;1.50;1.33;;;16.90;99.90;;;;;;4995763;28;20544;-86
2023/10/27 10:08:33;;;;;;;2.67;1.70;;;17.00;99.90;;;;;;4996509;28;20359;-88
2023/10/27 10:11:16;;;;;;;2.70;1.97;;;17.00;99.90;;;;;;4994122;28;20205;-88
2023/10/27 10:13:42;;;;;;;2.23;1.70;;;17.00;99.90;;;;;;4995921;28;20567;-88
2023/10/27 10:16:09;;;;;;;2.53;1.70;;;17.00;99.90;;;;;;4993045;28;20249;-88
2023/10/27 10:18:38;;;;;;;2.30;1.60;;;17.00;99.90;;;;;;4981528;28;20408;-88
2023/10/27 10:21:06;;;;;;;2.43;1.47;;;17.00;99.90;;;;;;4990584;28;20177;-87
2023/10/27 10:23:37;;;;;;;2.67;1.57;;;17.00;99.90;;;;;;5007528;28;20176;-87
2023/10/27 10:26:03;;;;;;;1.93;1.40;;;17.00;99.90;;;;;;5007083;28;20173;-87
2023/10/27 10:28:33;;;;;;;2.80;1.60;;;17.00;99.90;;;;;;4997089;28;20624;-88
2023/10/27 10:31:10;;;;;;;2.10;1.60;;;17.00;99.90;;;;;;5006653;28;20176;-87
2023/10/27 10:33:45;;;;;;;2.83;1.93;;;17.00;99.90;;;;;;5000121;28;20184;-87
2023/10/27 10:36:23;;;;;;;2.47;1.60;;;17.00;99.90;;;;;;5006333;28;20219;-88
2023/10/27 10:39:05;;;;;;;3.83;1.80;;;17.00;99.90;;;;;;4995847;28;20169;-88
2023/10/27 10:41:53;;;;;;;2.47;1.80;;;17.00;99.90;;;;;;4989541;28;20211;-88
2023/10/27 10:44:19;;;;;;;3.90;1.70;;;17.00;99.90;;;;;;4995822;28;20414;-88
2023/10/27 10:46:45;;;;;;;3.97;1.80;;;17.00;99.90;;;;;;5005273;28;20374;-88
2023/10/27 10:49:21;;;;;;;2.80;1.90;;;17.00;99.90;;;;;;4995880;28;20179;-88
2023/10/27 10:51:54;;;;;;;2.27;1.50;;;17.00;99.90;;;;;;5005135;28;20381;-88
2023/10/27 10:54:28;;;;;;;3.43;1.87;;;17.00;99.90;;;;;;4994979;28;20331;-88
2023/10/27 10:57:02;;;;;;;5.20;1.80;;;17.00;99.90;;;;;;5022446;28;20194;-86
2023/10/27 10:59:28;;;;;;;3.43;1.60;;;17.00;99.90;;;;;;4994162;28;20235;-86
2023/10/27 11:01:55;;;;;;;2.37;1.57;;;17.00;99.90;;;;;;5004548;28;20341;-86
2023/10/27 11:04:31;;;;;;;3.20;2.10;;;17.00;99.90;;;;;;4998016;28;20208;-86
2023/10/27 11:06:59;;;;;;;2.43;1.77;;;17.00;99.90;;;;;;4987292;28;20178;-87
2023/10/27 11:09:25;;;;;;;4.53;1.67;;;17.00;99.90;;;;;;5016170;28;20418;-87
2023/10/27 11:11:51;;;;;;;3.53;1.80;;;17.00;99.90;;;;;;5005380;28;20192;-86
2023/10/27 11:14:16;;;;;;;2.97;1.80;;;17.10;99.90;;;;;;5001801;28;20330;-86
2023/10/27 11:16:42;;;;;;;4.40;1.63;;;17.10;99.90;;;;;;5007315;28;20264;-87
2023/10/27 11:19:16;;;;;;;3.43;1.73;;;17.10;99.90;;;;;;4999547;28;20519;-87
2023/10/27 11:21:41;;;;;;;4.27;2.07;;;17.10;99.90;;;;;;4989948;28;20685;-87
2023/10/27 11:24:08;;;;;;;4.33;1.67;;;17.10;99.90;;;;;;4999316;28;20416;-87
2023/10/27 11:26:41;;;;;;;4.20;1.80;;;17.20;99.90;;;;;;5012939;28;20208;-86
2023/10/27 11:29:08;;;;;;;2.87;1.90;;;17.20;99.90;;;;;;4991366;28;20185;-87
2023/10/27 11:31:39;;;;;;;3.87;1.53;;;17.20;99.90;;;;;;5020157;28;20315;-87
2023/10/27 11:34:07;;;;;;;4.47;1.73;;;17.20;99.90;;;;;;5009052;28;20193;-87
2023/10/27 11:36:36;;;;;;;4.07;1.63;;;17.20;99.90;;;;;;5012617;28;20247;-88
2023/10/27 11:39:14;;;;;;;2.87;1.90;;;17.20;99.90;;;;;;4996935;28;20255;-87
2023/10/27 11:42:00;;;;;;;3.37;1.53;;;17.30;99.90;;;;;;4998424;28;20275;-88
2023/10/27 11:44:27;;;;;;;4.77;1.73;;;17.30;99.90;;;;;;4996665;28;20204;-86
2023/10/27 11:47:04;;;;;;;5.20;1.90;;;17.30;99.90;;;;;;5011498;28;20560;-88
2023/10/27 11:49:31;;;;;;;2.80;1.97;;;17.30;99.90;;;;;;4985928;28;20276;-87
2023/10/27 11:51:58;;;;;;;7.10;1.83;;;17.30;99.90;;;;;;4994720;28;20696;-87
2023/10/27 11:54:25;;;;;;;2.67;1.80;;;17.30;99.90;;;;;;4992326;28;20177;-87
2023/10/27 11:56:51;;;;;;;4.80;1.67;;;17.30;99.90;;;;;;4999078;28;20179;-87
2023/10/27 11:59:20;;;;;;;2.77;1.77;;;17.30;99.90;;;;;;4990596;28;20373;-87
2023/10/27 12:01:46;;;;;;;2.73;2.10;;;17.30;99.90;;;;;;5000537;28;20174;-87
2023/10/27 12:04:12;;;;;;;3.73;1.97;;;17.30;99.90;;;;;;4989182;28;20504;-87
2023/10/27 12:06:41;;;;;;;4.13;1.70;;;17.30;99.90;;;;;;4999523;28;20169;-87
2023/10/27 12:09:08;;;;;;;3.33;1.67;;;17.30;99.90;;;;;;4986771;28;20395;-87
2023/10/27 12:11:34;;;;;;;2.23;1.50;;;17.30;99.90;;;;;;5017613;28;20237;-87
2023/10/27 12:14:00;;;;;;;1.97;1.50;;;17.30;99.90;;;;;;4988913;28;20417;-86
2023/10/27 12:16:29;;;;;;;2.33;1.60;;;17.30;99.90;;;;;;4998774;28;20360;-87
2023/10/27 12:18:58;;;;;;;3.57;1.57;;;17.30;99.90;;;;;;5005144;28;20184;-86
2023/10/27 12:21:26;;;;;;;2.80;1.57;;;17.30;99.90;;;;;;5017286;28;20180;-86
2023/10/27 12:23:53;;;;;;;3.43;1.60;;;17.30;99.90;;;;;;4987384;28;20594;-86
2023/10/27 12:26:19;;;;;;;2.03;1.50;;;17.30;99.90;;;;;;4998013;28;20177;-86
2023/10/27 12:28:45;;;;;;;3.97;1.60;;;17.30;99.90;;;;;;5017583;28;20245;-88
2023/10/27 12:31:13;;;;;;;3.03;1.50;;;17.30;99.90;;;;;;5005275;28;20208;-87
2023/10/27 12:33:39;;;;;;;2.67;1.67;;;17.30;99.90;;;;;;5009592;28;20522;-88
2023/10/27 12:36:09;;;;;;;2.70;1.80;;;17.30;99.90;;;;;;5004474;28;20181;-88
2023/10/27 12:38:35;;;;;;;2.23;1.60;;;17.30;99.90;;;;;;4995070;28;20457;-88
2023/10/27 12:41:01;;;;;;;2.40;1.50;;;17.30;99.90;;;;;;4993087;28;20184;-88
2023/10/27 12:43:29;;;;;;;2.57;1.63;;;17.30;99.90;;;;;;5014945;28;20358;-88
2023/10/27 12:45:55;;;;;;;2.50;1.50;;;17.30;99.90;;;;;;5006117;28;20423;-88
2023/10/27 12:48:20;;;;;;;2.73;1.63;;;17.30;99.90;;;;;;4994964;28;20177;-88